Time;durP1;ratioP1;P1;durP2;ratioP2;P2;SDS_P1;SDS_P2;PMS_P1;PMS_P2;Temp;Humidity;BMP_temperature;BMP_pressure;BME280_temperature;BME280_humidity;BME280_pressure;Samples;Min_cycle;Max_cycle;Signal;HPM_P1;HPM_P2
2023/03/16 00:01:25;;;;;;;11.23;4.90;;;7.10;99.90;;;;;;5031886;28;20040;-73
2023/03/16 00:03:51;;;;;;;12.73;6.15;;;7.10;99.90;;;;;;5030874;28;20128;-72
2023/03/16 00:06:20;;;;;;;12.52;5.75;;;7.10;99.90;;;;;;5031175;28;20436;-73
2023/03/16 00:08:46;;;;;;;9.27;4.80;;;7.10;99.90;;;;;;5031848;28;20099;-71
2023/03/16 00:11:12;;;;;;;13.25;5.85;;;7.10;99.90;;;;;;5013092;28;20489;-72
2023/03/16 00:13:37;;;;;;;8.50;3.88;;;7.10;99.90;;;;;;5031107;28;20501;-71
2023/03/16 00:16:03;;;;;;;11.45;4.75;;;7.10;99.90;;;;;;5031019;28;20022;-72
2023/03/16 00:18:30;;;;;;;12.70;5.93;;;7.00;99.90;;;;;;5031117;28;20072;-72
2023/03/16 00:20:58;;;;;;;10.10;5.07;;;7.00;99.90;;;;;;5030551;28;20607;-72
2023/03/16 00:23:28;;;;;;;11.00;5.28;;;7.00;99.90;;;;;;5030905;28;20110;-71
2023/03/16 00:25:59;;;;;;;10.45;5.07;;;7.00;99.90;;;;;;5025989;28;20046;-71
2023/03/16 00:28:26;;;;;;;12.10;5.85;;;7.10;99.90;;;;;;5030727;28;20119;-72
2023/03/16 00:30:57;;;;;;;12.88;4.95;;;7.10;99.90;;;;;;5030992;28;20046;-71
2023/03/16 00:33:24;;;;;;;15.70;5.28;;;7.00;99.90;;;;;;5030745;28;20477;-72
2023/03/16 00:35:49;;;;;;;9.50;4.30;;;7.00;99.90;;;;;;5027786;28;20029;-71
2023/03/16 00:38:19;;;;;;;11.32;5.82;;;7.00;99.90;;;;;;5030709;28;20104;-74
2023/03/16 00:40:45;;;;;;;8.30;4.50;;;7.00;99.90;;;;;;5030401;28;20029;-73
2023/03/16 00:43:17;;;;;;;8.43;3.83;;;7.00;99.90;;;;;;5031031;28;20036;-72
2023/03/16 00:45:43;;;;;;;9.85;4.55;;;7.00;99.90;;;;;;5030704;28;20071;-71
2023/03/16 00:48:10;;;;;;;10.38;4.90;;;7.00;99.90;;;;;;5030148;28;20033;-72
2023/03/16 00:50:41;;;;;;;15.40;5.45;;;7.00;99.90;;;;;;5030734;28;20041;-71
2023/03/16 00:53:06;;;;;;;12.48;5.93;;;7.00;99.90;;;;;;5030559;28;20563;-73
2023/03/16 00:55:45;;;;;;;11.05;5.55;;;7.00;99.90;;;;;;5011681;28;20029;-72
2023/03/16 00:58:13;;;;;;;11.40;5.15;;;7.00;99.90;;;;;;5024006;28;20044;-71
2023/03/16 01:00:39;;;;;;;11.05;4.45;;;7.00;99.90;;;;;;5030025;28;20026;-72
2023/03/16 01:03:06;;;;;;;9.68;3.83;;;7.00;99.90;;;;;;5030474;28;20114;-73
2023/03/16 01:05:32;;;;;;;9.70;5.35;;;6.90;99.90;;;;;;5030216;28;20385;-72
2023/03/16 01:07:58;;;;;;;8.63;4.63;;;6.90;99.90;;;;;;5033574;28;20029;-72
2023/03/16 01:10:24;;;;;;;8.88;3.97;;;6.90;99.90;;;;;;5034267;28;20030;-71
2023/03/16 01:12:54;;;;;;;9.48;4.70;;;6.90;99.90;;;;;;5034895;28;20025;-71
2023/03/16 01:15:21;;;;;;;9.80;4.32;;;6.90;99.90;;;;;;5035079;28;20037;-71
2023/03/16 01:17:46;;;;;;;14.35;5.13;;;6.80;99.90;;;;;;5035177;28;20468;-72
2023/03/16 01:20:14;;;;;;;10.15;5.05;;;6.80;99.90;;;;;;5035257;28;20053;-73
2023/03/16 01:22:39;;;;;;;9.60;4.55;;;6.80;99.90;;;;;;5035295;28;20025;-72
2023/03/16 01:25:05;;;;;;;11.45;5.38;;;6.70;99.90;;;;;;5034515;28;20026;-72
2023/03/16 01:27:31;;;;;;;10.57;4.70;;;6.70;99.90;;;;;;5034295;28;20033;-73
2023/03/16 01:29:57;;;;;;;10.23;5.50;;;6.70;99.90;;;;;;5034739;28;20053;-72
2023/03/16 01:32:22;;;;;;;13.02;5.45;;;6.70;99.90;;;;;;5034882;28;20033;-72
2023/03/16 01:34:48;;;;;;;11.32;4.78;;;6.70;99.90;;;;;;5035138;28;20044;-72
2023/03/16 01:37:13;;;;;;;11.13;4.97;;;6.70;99.90;;;;;;5035065;28;20029;-72
2023/03/16 01:39:39;;;;;;;11.45;5.50;;;6.70;99.90;;;;;;5035035;28;20026;-72
2023/03/16 01:42:05;;;;;;;15.98;5.22;;;6.70;99.90;;;;;;5034987;28;20033;-72
2023/03/16 01:45:04;;;;;;;11.48;5.40;;;6.70;99.90;;;;;;5034372;28;20033;-71
2023/03/16 01:47:36;;;;;;;8.60;4.35;;;6.70;99.90;;;;;;5034984;28;20511;-72
2023/03/16 01:50:04;;;;;;;11.10;5.80;;;6.80;99.90;;;;;;5034522;28;20111;-71
2023/03/16 01:52:34;;;;;;;12.35;5.15;;;6.80;99.90;;;;;;5034597;28;20159;-71
2023/03/16 01:55:13;;;;;;;14.05;5.32;;;6.80;99.90;;;;;;5034658;28;20021;-72
2023/03/16 01:57:43;;;;;;;10.88;5.13;;;6.80;99.90;;;;;;5034268;28;20400;-71
2023/03/16 02:00:18;;;;;;;11.27;4.38;;;6.80;99.90;;;;;;5034441;28;20030;-72
2023/03/16 02:02:50;;;;;;;14.80;6.30;;;6.80;99.90;;;;;;5034466;28;20075;-71
2023/03/16 02:05:22;;;;;;;9.57;4.82;;;6.80;99.90;;;;;;5034263;28;20128;-71
2023/03/16 02:07:49;;;;;;;6.93;3.85;;;6.70;99.90;;;;;;5034579;28;20172;-71
2023/03/16 02:10:18;;;;;;;13.98;4.93;;;6.70;99.90;;;;;;5034105;28;20484;-72
2023/03/16 02:12:44;;;;;;;10.98;4.85;;;6.70;99.90;;;;;;5034118;28;20100;-70
2023/03/16 02:15:12;;;;;;;12.85;5.43;;;6.70;99.90;;;;;;5034158;28;20032;-72
2023/03/16 02:17:40;;;;;;;10.45;4.82;;;6.70;99.90;;;;;;5033782;28;20440;-71
2023/03/16 02:20:22;;;;;;;13.73;5.93;;;6.70;99.90;;;;;;5034346;28;20026;-72
2023/03/16 02:22:53;;;;;;;10.07;4.90;;;6.70;99.90;;;;;;5034304;28;20037;-72
2023/03/16 02:25:25;;;;;;;11.10;5.40;;;6.70;99.90;;;;;;5034388;28;20080;-72
2023/03/16 02:27:55;;;;;;;;;;;6.70;99.90;;;;;;5034542;28;20040;-72
2023/03/16 02:30:21;;;;;;;10.65;5.47;;;6.70;99.90;;;;;;5033742;28;20434;-72
2023/03/16 02:32:50;;;;;;;10.38;4.30;;;6.70;99.90;;;;;;5034018;28;20033;-72
2023/03/16 02:35:16;;;;;;;10.82;5.55;;;6.60;99.90;;;;;;5033935;28;20037;-72
2023/03/16 02:37:41;;;;;;;12.48;5.50;;;6.70;99.90;;;;;;5033740;28;20026;-72
2023/03/16 02:40:25;;;;;;;9.95;5.15;;;6.70;99.90;;;;;;5033853;28;20035;-72
2023/03/16 02:43:01;;;;;;;9.70;5.38;;;6.70;99.90;;;;;;5033461;28;20102;-72
2023/03/16 02:45:32;;;;;;;13.02;5.97;;;6.60;99.90;;;;;;5034016;28;20029;-71
2023/03/16 02:48:02;;;;;;;10.52;5.22;;;6.70;99.90;;;;;;5033590;28;20033;-72
2023/03/16 02:50:28;;;;;;;8.68;4.38;;;6.60;99.90;;;;;;5033803;28;20507;-72
2023/03/16 02:52:53;;;;;;;13.68;5.07;;;6.60;99.90;;;;;;5033453;28;20053;-72
2023/03/16 02:55:20;;;;;;;10.40;4.88;;;6.60;99.90;;;;;;5032572;28;20091;-72
2023/03/16 02:57:46;;;;;;;11.70;5.20;;;6.60;99.90;;;;;;5015929;28;20072;-72
2023/03/16 03:00:17;;;;;;;10.23;4.93;;;6.60;99.90;;;;;;5033346;28;20037;-72
2023/03/16 03:02:43;;;;;;;12.38;4.85;;;6.60;99.90;;;;;;5033300;28;20040;-72
2023/03/16 03:05:10;;;;;;;12.00;5.07;;;6.60;99.90;;;;;;5033362;28;20033;-72
2023/03/16 03:07:36;;;;;;;11.95;5.60;;;6.70;99.90;;;;;;5032849;28;20049;-72
2023/03/16 03:10:04;;;;;;;13.18;5.57;;;6.70;99.90;;;;;;5033054;28;20030;-72
2023/03/16 03:12:31;;;;;;;12.48;4.90;;;6.60;99.90;;;;;;5033084;28;20083;-72
2023/03/16 03:14:56;;;;;;;11.90;6.03;;;6.70;99.90;;;;;;5033261;28;20466;-72
2023/03/16 03:17:28;;;;;;;11.60;5.63;;;6.70;99.90;;;;;;5032994;28;20032;-72
2023/03/16 03:19:55;;;;;;;11.55;5.55;;;6.70;99.90;;;;;;5033301;28;20037;-72
2023/03/16 03:22:21;;;;;;;11.93;6.05;;;6.60;99.90;;;;;;5032580;28;20078;-72
2023/03/16 03:24:46;;;;;;;11.98;5.60;;;6.60;99.90;;;;;;5033128;28;20108;-72
2023/03/16 03:27:12;;;;;;;13.60;5.82;;;6.70;99.90;;;;;;5033067;28;20026;-72
2023/03/16 03:29:38;;;;;;;13.80;7.07;;;6.70;99.90;;;;;;5032400;28;20045;-72
2023/03/16 03:32:04;;;;;;;11.02;5.65;;;6.70;99.90;;;;;;5032763;28;20036;-72
2023/03/16 03:34:30;;;;;;;15.25;5.63;;;6.70;99.90;;;;;;5032905;28;20029;-73
2023/03/16 03:36:57;;;;;;;17.00;7.55;;;6.70;99.90;;;;;;5032268;28;20113;-72
2023/03/16 03:39:23;;;;;;;12.30;5.43;;;6.70;99.90;;;;;;5032770;28;20052;-72
2023/03/16 03:41:48;;;;;;;11.90;6.35;;;6.80;99.90;;;;;;5032800;28;20045;-72
2023/03/16 03:44:14;;;;;;;12.07;5.20;;;6.80;99.90;;;;;;5032470;28;20367;-72
2023/03/16 03:46:39;;;;;;;11.75;6.10;;;6.80;99.90;;;;;;5032700;28;20030;-72
2023/03/16 03:49:05;;;;;;;13.20;5.93;;;6.80;99.90;;;;;;5032531;28;20389;-72
2023/03/16 03:51:31;;;;;;;16.58;6.45;;;6.80;99.90;;;;;;5032084;28;20032;-72
2023/03/16 03:53:58;;;;;;;13.48;6.05;;;6.80;99.90;;;;;;5032540;28;20030;-72
2023/03/16 03:56:24;;;;;;;11.65;5.80;;;6.80;99.90;;;;;;5032783;28;20040;-72
2023/03/16 03:58:50;;;;;;;15.27;6.50;;;6.90;99.90;;;;;;5032177;28;20045;-71
2023/03/16 04:01:15;;;;;;;13.55;6.38;;;6.90;99.90;;;;;;5032386;28;20051;-72
2023/03/16 04:03:41;;;;;;;11.82;5.82;;;6.90;99.90;;;;;;5032903;28;20044;-72
2023/03/16 04:06:07;;;;;;;14.35;7.15;;;6.90;99.90;;;;;;5032129;28;20038;-72
2023/03/16 04:08:33;;;;;;;17.08;6.72;;;6.90;99.90;;;;;;5032503;28;20021;-73
2023/03/16 04:10:59;;;;;;;11.98;5.25;;;6.90;99.90;;;;;;5032218;28;20076;-72
2023/03/16 04:13:25;;;;;;;14.60;5.75;;;6.90;99.90;;;;;;5032344;28;20054;-72
2023/03/16 04:15:58;;;;;;;13.45;6.00;;;6.90;99.90;;;;;;5032325;28;20061;-74
2023/03/16 04:18:24;;;;;;;11.13;5.00;;;6.90;99.90;;;;;;5032170;28;20048;-72
2023/03/16 04:20:52;;;;;;;16.20;6.40;;;6.90;99.90;;;;;;5032255;28;20025;-74
2023/03/16 04:23:18;;;;;;;18.33;6.50;;;6.90;99.90;;;;;;5032272;28;20454;-74
2023/03/16 04:25:44;;;;;;;12.93;5.53;;;6.90;99.90;;;;;;5032010;28;20029;-72
2023/03/16 04:28:09;;;;;;;16.60;6.35;;;6.90;99.90;;;;;;5032130;28;20025;-72
2023/03/16 04:30:35;;;;;;;11.18;5.63;;;6.90;99.90;;;;;;5032395;28;20076;-71
2023/03/16 04:33:01;;;;;;;14.43;6.03;;;6.90;99.90;;;;;;5031881;28;20075;-70
2023/03/16 04:35:26;;;;;;;12.82;6.10;;;6.90;99.90;;;;;;5032129;28;20148;-73
2023/03/16 04:37:52;;;;;;;15.23;6.35;;;6.90;99.90;;;;;;5031840;28;20105;-71
2023/03/16 04:40:18;;;;;;;14.98;5.15;;;6.90;99.90;;;;;;5031970;28;20061;-70
2023/03/16 04:42:44;;;;;;;15.95;6.80;;;6.90;99.90;;;;;;5016709;28;20380;-69
2023/03/16 04:45:11;;;;;;;9.52;5.28;;;6.90;99.90;;;;;;5036062;28;20030;-71
2023/03/16 04:47:37;;;;;;;15.07;5.40;;;6.90;99.90;;;;;;5035793;28;20041;-70
2023/03/16 04:50:03;;;;;;;10.18;5.18;;;6.80;99.90;;;;;;5035721;28;20041;-70
2023/03/16 04:52:29;;;;;;;10.57;4.80;;;6.80;99.90;;;;;;5035737;28;20034;-71
2023/03/16 04:54:55;;;;;;;10.27;4.75;;;6.70;99.90;;;;;;5035631;28;20037;-72
2023/03/16 04:57:21;;;;;;;13.13;6.03;;;6.70;99.90;;;;;;5035463;28;20120;-72
2023/03/16 04:59:47;;;;;;;12.40;5.15;;;6.60;99.90;;;;;;5035549;28;20038;-72
2023/03/16 05:02:13;;;;;;;10.63;4.68;;;6.60;99.90;;;;;;5035307;28;20025;-71
2023/03/16 05:04:38;;;;;;;15.98;6.43;;;6.50;99.90;;;;;;5035840;28;20207;-71
2023/03/16 05:07:04;;;;;;;15.20;6.07;;;6.50;99.90;;;;;;5035540;28;20221;-70
2023/03/16 05:09:30;;;;;;;9.73;4.75;;;6.50;99.90;;;;;;5035555;28;20033;-71
2023/03/16 05:11:55;;;;;;;14.13;5.97;;;6.50;99.90;;;;;;5035641;28;20045;-71
2023/03/16 05:14:21;;;;;;;13.48;5.85;;;6.50;99.90;;;;;;5034968;28;20041;-73
2023/03/16 05:16:46;;;;;;;11.30;5.15;;;6.40;99.90;;;;;;5035579;28;20029;-73
2023/03/16 05:19:12;;;;;;;18.80;6.10;;;6.40;99.90;;;;;;5035517;28;20060;-70
2023/03/16 05:21:37;;;;;;;11.18;5.30;;;6.40;99.90;;;;;;5017984;28;20045;-71
2023/03/16 05:24:07;;;;;;;14.48;5.78;;;6.30;99.90;;;;;;5035620;28;20393;-70
2023/03/16 05:26:32;;;;;;;10.70;4.47;;;6.30;99.90;;;;;;5035363;28;20042;-72
2023/03/16 05:28:59;;;;;;;14.05;6.60;;;6.30;99.90;;;;;;5035198;28;20444;-72
2023/03/16 05:31:27;;;;;;;13.15;5.13;;;6.30;99.90;;;;;;5035014;28;20053;-72
2023/03/16 05:33:53;;;;;;;8.60;4.30;;;6.30;99.90;;;;;;5035103;28;20071;-72
2023/03/16 05:36:19;;;;;;;12.35;5.95;;;6.20;99.90;;;;;;5035034;28;20033;-73
2023/03/16 05:38:45;;;;;;;13.32;6.03;;;6.20;99.90;;;;;;5035077;28;20124;-72
2023/03/16 05:41:11;;;;;;;12.20;5.05;;;6.30;99.90;;;;;;5035485;28;20481;-72
2023/03/16 05:43:36;;;;;;;6.40;2.90;;;6.20;99.90;;;;;;5035020;28;20064;-72
2023/03/16 05:46:02;;;;;;;13.57;5.47;;;6.20;99.90;;;;;;5034729;28;20103;-72
2023/03/16 05:48:28;;;;;;;10.32;4.28;;;6.30;99.90;;;;;;5034895;28;20036;-72
2023/03/16 05:50:54;;;;;;;10.57;4.80;;;6.30;99.90;;;;;;5034772;28;20025;-72
2023/03/16 05:53:22;;;;;;;10.57;4.18;;;6.30;99.90;;;;;;5034382;28;20025;-73
2023/03/16 05:55:51;;;;;;;11.38;4.82;;;6.30;99.90;;;;;;5034842;28;20111;-72
2023/03/16 05:58:17;;;;;;;11.73;4.97;;;6.30;99.90;;;;;;5034699;28;20069;-72
2023/03/16 06:00:42;;;;;;;15.20;5.20;;;6.30;99.90;;;;;;5034590;28;20115;-72
2023/03/16 06:03:08;;;;;;;9.52;4.35;;;6.30;99.90;;;;;;5034688;28;20025;-71
2023/03/16 06:05:33;;;;;;;14.73;5.45;;;6.30;99.90;;;;;;5034651;28;20037;-72
2023/03/16 06:08:00;;;;;;;8.30;4.15;;;6.30;99.90;;;;;;5033424;28;20036;-72
2023/03/16 06:10:26;;;;;;;13.52;4.40;;;6.30;99.90;;;;;;5034544;28;20104;-72
2023/03/16 06:12:52;;;;;;;12.65;3.95;;;6.30;99.90;;;;;;5033782;28;20030;-72
2023/03/16 06:15:18;;;;;;;15.32;5.38;;;6.30;99.90;;;;;;5033591;28;20036;-72
2023/03/16 06:17:43;;;;;;;10.68;4.07;;;6.30;99.90;;;;;;5033728;28;20087;-72
2023/03/16 06:20:11;;;;;;;8.57;3.60;;;6.30;99.90;;;;;;5034208;28;20072;-71
2023/03/16 06:22:41;;;;;;;10.35;4.78;;;6.30;99.90;;;;;;5034166;28;20474;-72
2023/03/16 06:25:09;;;;;;;10.20;4.43;;;6.30;99.90;;;;;;5033992;28;20050;-72
2023/03/16 06:27:35;;;;;;;8.82;3.78;;;6.20;99.90;;;;;;5033670;28;20393;-72
2023/03/16 06:30:01;;;;;;;12.82;4.88;;;6.20;99.90;;;;;;5033650;28;20068;-71
2023/03/16 06:32:27;;;;;;;11.95;4.05;;;6.20;99.90;;;;;;5034000;28;20036;-72
2023/03/16 06:34:52;;;;;;;10.85;3.50;;;6.20;99.90;;;;;;5034129;28;20022;-72
2023/03/16 06:37:18;;;;;;;7.20;4.40;;;6.30;99.90;;;;;;5033988;28;20045;-72
2023/03/16 06:39:44;;;;;;;9.57;4.22;;;6.30;99.90;;;;;;5032653;28;20029;-73
2023/03/16 06:42:10;;;;;;;6.57;3.42;;;6.30;99.90;;;;;;5016224;28;20461;-71
2023/03/16 06:44:36;;;;;;;12.82;3.97;;;6.30;99.90;;;;;;5033727;28;20029;-71
2023/03/16 06:47:02;;;;;;;5.80;3.50;;;6.40;99.90;;;;;;5033834;28;20033;-72
2023/03/16 06:49:28;;;;;;;11.88;4.43;;;6.40;99.90;;;;;;5033675;28;20025;-71
2023/03/16 06:51:54;;;;;;;8.63;3.72;;;6.40;99.90;;;;;;5033268;28;20385;-71
2023/03/16 06:54:20;;;;;;;9.65;3.97;;;6.40;99.90;;;;;;5033279;28;20024;-71
2023/03/16 06:56:45;;;;;;;10.25;3.53;;;6.50;99.90;;;;;;5033535;28;20126;-72
2023/03/16 06:59:11;;;;;;;14.40;4.82;;;6.60;99.90;;;;;;5033344;28;20148;-72
2023/03/16 07:01:36;;;;;;;8.15;3.15;;;6.60;99.90;;;;;;5030611;28;20033;-72
2023/03/16 07:04:02;;;;;;;9.73;3.55;;;6.70;99.90;;;;;;5029273;28;20026;-72
2023/03/16 07:06:28;;;;;;;8.85;4.55;;;6.70;99.90;;;;;;5023717;28;20025;-72
2023/03/16 07:08:53;;;;;;;7.88;3.38;;;6.70;99.90;;;;;;5020094;28;20030;-73
2023/03/16 07:11:19;;;;;;;8.93;3.53;;;6.60;99.90;;;;;;5032957;28;20037;-71
2023/03/16 07:13:44;;;;;;;11.00;3.60;;;6.60;99.90;;;;;;5033108;28;20381;-71
2023/03/16 07:16:10;;;;;;;13.95;3.20;;;6.60;99.90;;;;;;5033100;28;20072;-71
2023/03/16 07:18:38;;;;;;;8.82;3.33;;;6.50;99.90;;;;;;5032848;28;20560;-71
2023/03/16 07:21:04;;;;;;;5.75;3.33;;;6.50;99.90;;;;;;5032890;28;20032;-70
2023/03/16 07:23:31;;;;;;;8.48;4.20;;;6.40;99.90;;;;;;5032792;28;20466;-71
2023/03/16 07:25:56;;;;;;;8.73;3.13;;;6.40;99.90;;;;;;5032600;28;20026;-70
2023/03/16 07:28:22;;;;;;;10.18;3.13;;;6.50;99.90;;;;;;5033060;28;20021;-70
2023/03/16 07:30:47;;;;;;;6.22;3.53;;;6.40;99.90;;;;;;5024737;28;20478;-70
2023/03/16 07:33:13;;;;;;;9.32;3.58;;;6.40;99.90;;;;;;5023504;28;20030;-70
2023/03/16 07:35:40;;;;;;;4.95;3.28;;;6.50;99.90;;;;;;5026064;28;20025;-70
2023/03/16 07:38:06;;;;;;;12.18;3.92;;;6.50;99.90;;;;;;5032794;28;20037;-70
2023/03/16 07:40:33;;;;;;;7.93;2.80;;;6.50;99.90;;;;;;5031740;28;20117;-70
2023/03/16 07:42:58;;;;;;;7.75;3.22;;;6.60;99.90;;;;;;5032717;28;20053;-70
2023/03/16 07:45:24;;;;;;;10.23;3.85;;;6.60;99.90;;;;;;5032505;28;20029;-70
2023/03/16 07:47:50;;;;;;;8.93;3.75;;;6.70;99.90;;;;;;5032480;28;20033;-70
2023/03/16 07:50:18;;;;;;;12.95;3.95;;;6.70;99.90;;;;;;5032302;28;20057;-70
2023/03/16 07:52:45;;;;;;;17.63;7.13;;;6.80;99.90;;;;;;5032549;28;20037;-70
2023/03/16 07:55:11;;;;;;;5.72;2.63;;;6.90;99.90;;;;;;5032287;28;20049;-71
2023/03/16 07:57:38;;;;;;;5.70;2.28;;;7.00;99.90;;;;;;5032430;28;20088;-70
2023/03/16 08:00:06;;;;;;;6.20;3.47;;;7.10;99.90;;;;;;5032574;28;20109;-71
2023/03/16 08:02:32;;;;;;;13.95;6.10;;;7.10;99.90;;;;;;4998383;28;20437;-71
2023/03/16 08:04:58;;;;;;;7.88;2.80;;;7.20;99.90;;;;;;5032160;28;20033;-70
2023/03/16 08:07:24;;;;;;;9.18;3.30;;;7.30;99.90;;;;;;5029126;28;20017;-70
2023/03/16 08:09:50;;;;;;;6.40;3.40;;;7.30;99.90;;;;;;5031872;28;20381;-70
2023/03/16 08:12:16;;;;;;;12.50;4.72;;;7.40;99.90;;;;;;5032067;28;20108;-70
2023/03/16 08:14:44;;;;;;;8.82;4.15;;;7.40;99.90;;;;;;5032207;28;20481;-70
2023/03/16 08:17:11;;;;;;;7.13;3.28;;;7.40;99.90;;;;;;5031876;28;20040;-70
2023/03/16 08:19:37;;;;;;;7.88;3.22;;;7.40;99.90;;;;;;5030708;28;20125;-70
2023/03/16 08:22:04;;;;;;;6.95;3.78;;;7.40;99.90;;;;;;5026698;28;20034;-70
2023/03/16 08:24:30;;;;;;;7.30;2.83;;;7.50;99.90;;;;;;5015722;28;20033;-71
2023/03/16 08:26:56;;;;;;;10.93;4.53;;;7.50;99.90;;;;;;5031768;28;20026;-70
2023/03/16 08:29:23;;;;;;;10.80;3.00;;;7.60;99.90;;;;;;5032093;28;20025;-69
2023/03/16 08:31:49;;;;;;;7.65;3.10;;;7.70;99.90;;;;;;5032080;28;20470;-69
2023/03/16 08:34:16;;;;;;;4.75;2.38;;;7.80;99.90;;;;;;5031768;28;20113;-70
2023/03/16 08:36:42;;;;;;;6.68;2.90;;;7.80;99.90;;;;;;5027323;28;20030;-69
2023/03/16 08:39:08;;;;;;;6.43;3.47;;;7.80;99.90;;;;;;5018127;28;20046;-69
2023/03/16 08:41:34;;;;;;;7.95;3.33;;;7.90;99.90;;;;;;5024070;28;20022;-69
2023/03/16 08:44:00;;;;;;;7.85;2.85;;;7.90;99.90;;;;;;5014329;28;20033;-69
2023/03/16 08:46:26;;;;;;;7.88;2.97;;;8.00;99.90;;;;;;5031411;28;20030;-70
2023/03/16 08:48:54;;;;;;;8.32;2.88;;;8.10;99.90;;;;;;5031039;28;20488;-70
2023/03/16 08:51:20;;;;;;;6.68;3.15;;;8.20;99.90;;;;;;5031680;28;20033;-70
2023/03/16 08:53:45;;;;;;;8.40;3.30;;;8.30;99.90;;;;;;5031735;28;20515;-70
2023/03/16 08:56:13;;;;;;;7.68;2.83;;;8.40;99.90;;;;;;5031777;28;20079;-69
2023/03/16 08:58:44;;;;;;;5.55;2.58;;;8.40;99.90;;;;;;5014086;28;20049;-70
2023/03/16 09:01:16;;;;;;;7.55;3.20;;;8.40;99.90;;;;;;5031319;28;20388;-69
2023/03/16 09:03:44;;;;;;;6.72;3.13;;;8.40;99.90;;;;;;5031919;28;20038;-69
2023/03/16 09:06:12;;;;;;;12.40;2.95;;;8.40;99.90;;;;;;5031559;28;20104;-71
2023/03/16 09:08:38;;;;;;;9.25;2.92;;;8.40;99.90;;;;;;5031779;28;20469;-71
2023/03/16 09:11:10;;;;;;;8.45;3.47;;;8.40;99.90;;;;;;5031719;28;20029;-71
2023/03/16 09:13:37;;;;;;;6.00;2.50;;;8.40;99.90;;;;;;5031662;28;20029;-71
2023/03/16 09:16:03;;;;;;;7.55;2.53;;;8.40;99.90;;;;;;5030211;28;20088;-71
2023/03/16 09:18:28;;;;;;;7.57;3.08;;;8.50;99.90;;;;;;5029908;28;20033;-71
2023/03/16 09:20:58;;;;;;;7.15;3.10;;;8.70;99.90;;;;;;5025207;28;20528;-72
2023/03/16 09:23:25;;;;;;;7.35;2.80;;;8.90;99.90;;;;;;5021596;28;20091;-71
2023/03/16 09:25:52;;;;;;;7.78;2.13;;;9.10;99.90;;;;;;5030449;28;20469;-71
2023/03/16 09:28:18;;;;;;;6.65;2.40;;;9.20;99.90;;;;;;5033004;28;20083;-72
2023/03/16 09:30:44;;;;;;;3.90;2.08;;;9.40;99.90;;;;;;5034874;28;20819;-70
2023/03/16 09:33:09;;;;;;;9.30;3.13;;;9.50;99.90;;;;;;5017215;28;20041;-69
2023/03/16 09:35:36;;;;;;;7.85;2.92;;;9.70;99.90;;;;;;5034972;28;20535;-70
2023/03/16 09:38:02;;;;;;;7.28;2.72;;;10.20;99.90;;;;;;5035062;28;20048;-70
2023/03/16 09:40:29;;;;;;;7.53;2.50;;;10.50;99.90;;;;;;5034778;28;20458;-71
2023/03/16 09:43:16;;;;;;;5.32;2.13;;;10.70;99.90;;;;;;5034886;28;20029;-71
2023/03/16 09:46:06;;;;;;;8.43;2.72;;;11.10;99.90;;;;;;5034396;28;20119;-70
2023/03/16 09:48:34;;;;;;;5.47;2.63;;;11.70;99.90;;;;;;5018784;28;20112;-70
2023/03/16 09:51:03;;;;;;;8.27;2.90;;;12.20;99.90;;;;;;5016862;28;20033;-70
2023/03/16 09:53:35;;;;;;;5.35;2.95;;;12.70;99.90;;;;;;5034635;28;20111;-70
2023/03/16 09:56:09;;;;;;;9.82;3.75;;;12.90;99.90;;;;;;5034262;28;20090;-70
2023/03/16 09:58:35;;;;;;;10.05;3.08;;;12.90;99.90;;;;;;5026885;28;20508;-71
2023/03/16 10:01:26;;;;;;;8.68;2.47;;;13.20;99.90;;;;;;5034507;28;20489;-70
2023/03/16 10:04:18;;;;;;;10.45;4.00;;;13.60;99.90;;;;;;5034305;28;20033;-71
2023/03/16 10:07:08;;;;;;;7.70;2.60;;;13.60;99.90;;;;;;5020077;28;20078;-70
2023/03/16 10:09:46;;;;;;;15.25;6.30;;;13.50;99.90;;;;;;5034566;28;20037;-70
2023/03/16 10:12:14;;;;;;;7.55;2.65;;;13.30;99.90;;;;;;5034219;28;20461;-70
2023/03/16 10:15:14;;;;;;;8.50;3.17;;;13.30;99.90;;;;;;5034201;28;20498;-70
2023/03/16 10:17:45;;;;;;;10.73;3.92;;;13.20;99.90;;;;;;5034227;28;20044;-71
2023/03/16 10:20:19;;;;;;;5.95;2.10;;;13.00;99.90;;;;;;5034238;28;20079;-71
2023/03/16 10:22:48;;;;;;;7.35;2.50;;;12.80;99.90;;;;;;5031115;28;20038;-71
2023/03/16 10:25:49;;;;;;;2.97;2.00;;;12.80;99.90;;;;;;5023547;28;20076;-71
2023/03/16 10:28:20;;;;;;;6.70;2.45;;;12.80;99.90;;;;;;5028850;28;20037;-72
2023/03/16 10:30:48;;;;;;;5.97;2.22;;;12.70;99.90;;;;;;5034163;28;20053;-72
2023/03/16 10:33:18;;;;;;;7.07;2.25;;;12.70;99.90;;;;;;5033567;28;20385;-71
2023/03/16 10:36:11;;;;;;;9.65;2.92;;;12.60;99.90;;;;;;5033832;28;20029;-71
2023/03/16 10:38:45;;;;;;;6.82;2.28;;;12.50;99.90;;;;;;5017363;28;20041;-71
2023/03/16 10:41:21;;;;;;;6.35;2.38;;;12.50;99.90;;;;;;5033104;28;20033;-71
2023/03/16 10:43:54;;;;;;;5.85;2.15;;;12.40;99.90;;;;;;5033482;28;20040;-72
2023/03/16 10:46:21;;;;;;;7.03;2.58;;;12.30;99.90;;;;;;5033569;28;20032;-71
2023/03/16 10:48:58;;;;;;;7.00;2.40;;;12.30;99.90;;;;;;5033941;28;20021;-72
2023/03/16 10:51:35;;;;;;;4.03;1.92;;;12.30;99.90;;;;;;5033632;28;20428;-71
2023/03/16 10:54:29;;;;;;;6.13;2.85;;;12.20;99.90;;;;;;5033783;28;20087;-71
2023/03/16 10:56:56;;;;;;;5.32;2.22;;;12.30;99.90;;;;;;5027615;28;20045;-71
2023/03/16 10:59:28;;;;;;;3.40;1.77;;;12.40;99.90;;;;;;5033379;28;20046;-71
2023/03/16 11:01:54;;;;;;;5.95;2.08;;;12.50;99.90;;;;;;5020191;28;20029;-71
2023/03/16 11:04:19;;;;;;;4.03;1.80;;;12.40;99.90;;;;;;5013760;28;20389;-71
2023/03/16 11:06:55;;;;;;;5.63;2.50;;;12.40;99.90;;;;;;5013708;28;20085;-71
2023/03/16 11:09:31;;;;;;;7.03;2.83;;;12.30;99.90;;;;;;5029099;28;20477;-71
2023/03/16 11:11:57;;;;;;;7.97;1.70;;;12.30;99.90;;;;;;5033025;28;20496;-71
2023/03/16 11:14:27;;;;;;;4.40;1.83;;;12.40;99.90;;;;;;5033585;28;20029;-70
2023/03/16 11:17:09;;;;;;;5.72;2.08;;;12.40;99.90;;;;;;5033288;28;20477;-71
2023/03/16 11:19:46;;;;;;;4.65;1.70;;;12.40;99.90;;;;;;5032706;28;20041;-71
2023/03/16 11:22:18;;;;;;;8.32;2.22;;;12.40;99.90;;;;;;5033029;28;20053;-71
2023/03/16 11:25:01;;;;;;;7.25;1.92;;;12.50;99.90;;;;;;5033035;28;20030;-71
2023/03/16 11:27:49;;;;;;;7.35;1.98;;;12.40;99.90;;;;;;5032679;28;20104;-71
2023/03/16 11:30:29;;;;;;;5.00;2.28;;;12.50;99.90;;;;;;5033138;28;20140;-71
2023/03/16 11:32:56;;;;;;;5.82;1.95;;;12.60;99.90;;;;;;5033135;28;20018;-71
2023/03/16 11:35:49;;;;;;;5.80;1.80;;;12.50;99.90;;;;;;5033155;28;20057;-71
2023/03/16 11:38:18;;;;;;;4.55;2.05;;;12.40;99.90;;;;;;5032288;28;20104;-71
2023/03/16 11:40:56;;;;;;;4.25;1.60;;;12.40;99.90;;;;;;5032872;28;20424;-71
2023/03/16 11:43:56;;;;;;;7.88;2.40;;;12.40;99.90;;;;;;5033012;28;20084;-71
2023/03/16 11:46:29;;;;;;;5.82;1.92;;;12.50;99.90;;;;;;5032336;28;20064;-70
2023/03/16 11:49:28;;;;;;;5.93;1.70;;;12.50;99.90;;;;;;5032882;28;20481;-71
2023/03/16 11:52:35;;;;;;;3.45;1.67;;;12.60;99.90;;;;;;5032594;28;20032;-72
2023/03/16 11:55:33;;;;;;;5.47;1.63;;;12.60;99.90;;;;;;4990938;28;20031;-71
2023/03/16 11:58:36;;;;;;;6.95;2.13;;;12.70;99.90;;;;;;5016972;28;20038;-72
2023/03/16 12:01:14;;;;;;;4.57;1.95;;;12.80;99.90;;;;;;4990490;28;20038;-71
2023/03/16 12:04:00;;;;;;;8.18;2.92;;;12.90;99.60;;;;;;5027970;28;20037;-71
2023/03/16 12:06:29;;;;;;;6.53;3.03;;;12.80;99.80;;;;;;5032552;28;20036;-71
2023/03/16 12:09:27;;;;;;;5.68;1.80;;;12.80;99.70;;;;;;5032747;28;20026;-71
2023/03/16 12:12:00;;;;;;;3.80;1.45;;;12.80;99.20;;;;;;5032273;28;20117;-71
2023/03/16 12:14:33;;;;;;;9.57;1.83;;;12.90;99.40;;;;;;5032604;28;20025;-71
2023/03/16 12:17:22;;;;;;;4.95;1.80;;;13.00;98.70;;;;;;5032522;28;20033;-71
2023/03/16 12:20:30;;;;;;;7.40;1.70;;;13.10;99.00;;;;;;5031152;28;20132;-71
2023/03/16 12:23:08;;;;;;;4.60;1.92;;;13.40;98.80;;;;;;4990270;28;20136;-71
2023/03/16 12:25:41;;;;;;;6.28;2.17;;;13.60;97.80;;;;;;4990582;28;20053;-71
2023/03/16 12:28:17;;;;;;;5.63;1.70;;;13.60;98.20;;;;;;4999468;28;20401;-71
2023/03/16 12:31:16;;;;;;;8.00;1.65;;;13.80;97.90;;;;;;5032096;28;20440;-71
2023/03/16 12:34:03;;;;;;;5.72;2.03;;;13.90;97.70;;;;;;5030582;28;20043;-71
2023/03/16 12:36:45;;;;;;;3.25;1.50;;;14.00;97.80;;;;;;5032111;28;20037;-71
2023/03/16 12:39:39;;;;;;;5.60;1.60;;;14.30;97.10;;;;;;5032194;28;20042;-71
2023/03/16 12:42:28;;;;;;;5.38;1.95;;;14.50;97.30;;;;;;5032052;28;20356;-70
2023/03/16 12:45:24;;;;;;;5.28;2.40;;;14.80;96.60;;;;;;5031365;28;20050;-70
2023/03/16 12:48:23;;;;;;;4.50;1.80;;;14.80;96.20;;;;;;5032117;28;20099;-70
2023/03/16 12:50:56;;;;;;;3.95;1.40;;;14.90;96.20;;;;;;5029456;28;20042;-71
2023/03/16 12:53:42;;;;;;;5.72;2.05;;;14.90;96.20;;;;;;5031544;28;20037;-71
2023/03/16 12:56:11;;;;;;;4.15;1.25;;;14.90;96.40;;;;;;5032066;28;20041;-71
2023/03/16 12:58:44;;;;;;;5.05;1.65;;;14.80;96.20;;;;;;5031853;28;20033;-71
2023/03/16 13:01:11;;;;;;;4.93;1.70;;;14.70;95.90;;;;;;5014232;28;20053;-71
2023/03/16 13:03:38;;;;;;;10.05;2.30;;;14.50;96.10;;;;;;5033499;28;20041;-70
2023/03/16 13:06:04;;;;;;;6.18;2.38;;;14.50;96.50;;;;;;5036200;28;20036;-70